sensor_id;sensor_type;location;lat;lon;timestamp;pressure;altitude;pressure_sealevel;temperature;humidity
62051;BME280;48008;51.204;6.766;2022-07-29T00:02:25;101100.41;;;20.26;45.84
62051;BME280;48008;51.204;6.766;2022-07-29T00:04:52;101091.13;;;20.16;45.50
62051;BME280;48008;51.204;6.766;2022-07-29T00:07:19;101093.16;;;20.13;45.43
62051;BME280;48008;51.204;6.766;2022-07-29T00:09:46;101090.06;;;20.23;45.82
62051;BME280;48008;51.204;6.766;2022-07-29T00:12:13;101081.56;;;20.20;45.72
62051;BME280;48008;51.204;6.766;2022-07-29T00:14:39;101085.06;;;20.13;45.37
62051;BME280;48008;51.204;6.766;2022-07-29T00:17:06;101082.78;;;20.17;45.79
62051;BME280;48008;51.204;6.766;2022-07-29T00:19:33;101076.59;;;20.17;45.62
62051;BME280;48008;51.204;6.766;2022-07-29T00:22:01;101077.00;;;20.20;45.49
62051;BME280;48008;51.204;6.766;2022-07-29T00:24:28;101072.66;;;20.12;45.64
62051;BME280;48008;51.204;6.766;2022-07-29T00:26:54;101067.69;;;20.03;45.82
62051;BME280;48008;51.204;6.766;2022-07-29T00:29:21;101065.19;;;20.08;45.86
62051;BME280;48008;51.204;6.766;2022-07-29T00:32:03;101060.06;;;20.00;46.10
62051;BME280;48008;51.204;6.766;2022-07-29T00:34:30;101059.63;;;20.09;46.36
62051;BME280;48008;51.204;6.766;2022-07-29T00:37:18;101047.19;;;20.02;46.06
62051;BME280;48008;51.204;6.766;2022-07-29T00:39:44;101049.91;;;20.08;45.96
62051;BME280;48008;51.204;6.766;2022-07-29T00:42:11;101041.59;;;20.10;46.04
62051;BME280;48008;51.204;6.766;2022-07-29T00:44:39;101041.78;;;20.15;45.86
62051;BME280;48008;51.204;6.766;2022-07-29T00:47:07;101039.53;;;20.12;46.11
62051;BME280;48008;51.204;6.766;2022-07-29T00:49:35;101027.09;;;20.04;45.98
62051;BME280;48008;51.204;6.766;2022-07-29T00:52:03;101031.03;;;20.08;46.37
62051;BME280;48008;51.204;6.766;2022-07-29T00:54:30;101022.72;;;20.10;46.23
62051;BME280;48008;51.204;6.766;2022-07-29T00:56:59;101027.31;;;20.09;46.27
62051;BME280;48008;51.204;6.766;2022-07-29T00:59:27;101029.19;;;20.09;46.37
62051;BME280;48008;51.204;6.766;2022-07-29T01:01:54;101024.41;;;20.04;46.53
62051;BME280;48008;51.204;6.766;2022-07-29T01:04:21;101018.63;;;19.94;46.48
62051;BME280;48008;51.204;6.766;2022-07-29T01:06:48;101014.06;;;19.94;46.50
62051;BME280;48008;51.204;6.766;2022-07-29T01:09:16;101012.41;;;19.93;46.56
62051;BME280;48008;51.204;6.766;2022-07-29T01:11:45;101007.03;;;19.93;46.76
62051;BME280;48008;51.204;6.766;2022-07-29T01:14:12;101003.31;;;20.01;47.14
62051;BME280;48008;51.204;6.766;2022-07-29T01:16:46;101010.31;;;20.02;46.65
62051;BME280;48008;51.204;6.766;2022-07-29T01:22:25;101005.59;;;19.84;46.97
62051;BME280;48008;51.204;6.766;2022-07-29T01:25:32;101012.44;;;19.80;47.33
62051;BME280;48008;51.204;6.766;2022-07-29T01:30:44;101015.53;;;19.77;46.88
62051;BME280;48008;51.204;6.766;2022-07-29T01:33:14;101013.44;;;19.66;47.05
62051;BME280;48008;51.204;6.766;2022-07-29T01:36:07;101008.69;;;19.54;48.38
62051;BME280;48008;51.204;6.766;2022-07-29T01:38:38;101016.97;;;19.53;48.51
62051;BME280;48008;51.204;6.766;2022-07-29T01:41:09;101015.31;;;19.59;48.67
62051;BME280;48008;51.204;6.766;2022-07-29T01:43:44;101011.78;;;19.58;48.44
62051;BME280;48008;51.204;6.766;2022-07-29T01:46:14;101016.34;;;19.71;48.07
62051;BME280;48008;51.204;6.766;2022-07-29T01:48:45;101009.53;;;19.68;48.16
62051;BME280;48008;51.204;6.766;2022-07-29T01:51:18;101003.94;;;19.56;48.15
62051;BME280;48008;51.204;6.766;2022-07-29T01:53:51;101009.53;;;19.68;48.52
62051;BME280;48008;51.204;6.766;2022-07-29T01:56:22;101004.97;;;19.69;49.02
62051;BME280;48008;51.204;6.766;2022-07-29T01:58:52;101003.53;;;19.73;48.97
62051;BME280;48008;51.204;6.766;2022-07-29T02:01:20;101000.22;;;19.58;48.71
62051;BME280;48008;51.204;6.766;2022-07-29T02:03:48;100995.44;;;19.46;49.18
62051;BME280;48008;51.204;6.766;2022-07-29T02:06:17;100996.28;;;19.47;49.45
62051;BME280;48008;51.204;6.766;2022-07-29T02:08:46;100999.78;;;19.54;48.81
62051;BME280;48008;51.204;6.766;2022-07-29T02:11:14;100996.69;;;19.50;48.99
62051;BME280;48008;51.204;6.766;2022-07-29T02:13:42;101014.47;;;19.51;48.95
62051;BME280;48008;51.204;6.766;2022-07-29T02:16:10;101013.03;;;19.55;49.37
62051;BME280;48008;51.204;6.766;2022-07-29T02:18:41;101021.94;;;19.56;49.46
62051;BME280;48008;51.204;6.766;2022-07-29T02:21:11;101024.22;;;19.52;49.59
62051;BME280;48008;51.204;6.766;2022-07-29T02:23:39;101028.53;;;19.53;49.91
62051;BME280;48008;51.204;6.766;2022-07-29T02:26:07;101038.06;;;19.43;49.95
62051;BME280;48008;51.204;6.766;2022-07-29T02:28:35;101034.94;;;19.39;49.66
62051;BME280;48008;51.204;6.766;2022-07-29T02:31:03;101026.47;;;19.42;49.41
62051;BME280;48008;51.204;6.766;2022-07-29T02:33:31;101029.56;;;19.32;49.90
62051;BME280;48008;51.204;6.766;2022-07-29T02:35:59;101035.75;;;19.20;49.83
62051;BME280;48008;51.204;6.766;2022-07-29T02:38:28;101030.78;;;19.30;49.00
62051;BME280;48008;51.204;6.766;2022-07-29T02:41:18;101027.47;;;19.14;49.56
62051;BME280;48008;51.204;6.766;2022-07-29T02:43:48;101033.28;;;19.18;49.46
62051;BME280;48008;51.204;6.766;2022-07-29T02:46:26;101034.28;;;19.04;49.39
62051;BME280;48008;51.204;6.766;2022-07-29T02:48:59;101031.97;;;19.01;49.86
62051;BME280;48008;51.204;6.766;2022-07-29T02:51:33;101028.88;;;19.04;49.53
62051;BME280;48008;51.204;6.766;2022-07-29T02:54:07;101031.34;;;18.98;49.50
62051;BME280;48008;51.204;6.766;2022-07-29T02:56:36;101030.13;;;19.01;49.69
62051;BME280;48008;51.204;6.766;2022-07-29T02:59:08;101041.44;;;18.90;49.52
62051;BME280;48008;51.204;6.766;2022-07-29T03:01:40;101043.09;;;18.84;49.74
62051;BME280;48008;51.204;6.766;2022-07-29T03:04:09;101051.19;;;18.91;49.93
62051;BME280;48008;51.204;6.766;2022-07-29T03:06:38;101051.00;;;18.92;49.65
62051;BME280;48008;51.204;6.766;2022-07-29T03:09:07;101051.41;;;18.96;49.54
62051;BME280;48008;51.204;6.766;2022-07-29T03:11:38;101058.59;;;18.82;49.54
62051;BME280;48008;51.204;6.766;2022-07-29T03:14:05;101054.00;;;18.76;50.13
62051;BME280;48008;51.204;6.766;2022-07-29T03:16:33;101074.53;;;18.84;50.08
62051;BME280;48008;51.204;6.766;2022-07-29T03:19:06;101086.84;;;18.71;50.24
62051;BME280;48008;51.204;6.766;2022-07-29T03:21:33;101092.63;;;18.68;56.17
62051;BME280;48008;51.204;6.766;2022-07-29T03:24:00;101098.66;;;18.42;56.67
62051;BME280;48008;51.204;6.766;2022-07-29T03:26:27;101089.66;;;18.21;57.75
62051;BME280;48008;51.204;6.766;2022-07-29T03:28:54;101081.75;;;17.85;59.87
62051;BME280;48008;51.204;6.766;2022-07-29T03:31:21;101097.75;;;17.78;62.57
62051;BME280;48008;51.204;6.766;2022-07-29T03:33:47;101100.78;;;17.75;61.69
62051;BME280;48008;51.204;6.766;2022-07-29T03:36:15;101109.81;;;17.68;61.14
62051;BME280;48008;51.204;6.766;2022-07-29T03:38:42;101103.75;;;17.37;63.03
62051;BME280;48008;51.204;6.766;2022-07-29T03:41:13;101113.34;;;17.10;66.53
62051;BME280;48008;51.204;6.766;2022-07-29T03:43:41;101099.25;;;16.86;66.77
62051;BME280;48008;51.204;6.766;2022-07-29T03:46:10;101086.56;;;16.65;69.21
62051;BME280;48008;51.204;6.766;2022-07-29T03:48:42;101088.13;;;16.60;69.80
62051;BME280;48008;51.204;6.766;2022-07-29T03:51:12;101079.09;;;16.46;71.00
62051;BME280;48008;51.204;6.766;2022-07-29T03:53:39;101077.50;;;16.37;71.99
62051;BME280;48008;51.204;6.766;2022-07-29T03:56:06;101066.97;;;16.35;71.82
62051;BME280;48008;51.204;6.766;2022-07-29T03:58:34;101061.09;;;16.25;74.41
62051;BME280;48008;51.204;6.766;2022-07-29T04:01:01;101058.00;;;16.13;73.53
62051;BME280;48008;51.204;6.766;2022-07-29T04:03:28;101046.00;;;15.94;75.79
62051;BME280;48008;51.204;6.766;2022-07-29T04:06:04;101043.03;;;15.89;75.84
62051;BME280;48008;51.204;6.766;2022-07-29T04:08:33;101045.25;;;15.85;77.30
62051;BME280;48008;51.204;6.766;2022-07-29T04:11:01;101039.84;;;15.70;77.96
62051;BME280;48008;51.204;6.766;2022-07-29T04:13:28;101039.19;;;15.68;78.30
62051;BME280;48008;51.204;6.766;2022-07-29T04:15:55;101035.09;;;15.58;78.52
62051;BME280;48008;51.204;6.766;2022-07-29T04:18:22;101053.91;;;15.64;79.43
62051;BME280;48008;51.204;6.766;2022-07-29T04:20:48;101054.75;;;15.65;77.85
62051;BME280;48008;51.204;6.766;2022-07-29T04:23:15;101052.44;;;15.85;81.54
62051;BME280;48008;51.204;6.766;2022-07-29T04:25:42;101052.53;;;15.91;82.58
62051;BME280;48008;51.204;6.766;2022-07-29T04:28:09;101050.31;;;15.95;83.10
62051;BME280;48008;51.204;6.766;2022-07-29T04:30:36;101044.91;;;15.88;78.44
62051;BME280;48008;51.204;6.766;2022-07-29T04:33:05;101058.00;;;15.98;80.85
62051;BME280;48008;51.204;6.766;2022-07-29T04:35:35;101062.59;;;16.04;81.13
62051;BME280;48008;51.204;6.766;2022-07-29T04:38:04;101069.53;;;15.99;80.86
62051;BME280;48008;51.204;6.766;2022-07-29T04:40:31;101056.25;;;15.90;78.53
62051;BME280;48008;51.204;6.766;2022-07-29T04:43:00;101055.69;;;15.95;78.82
62051;BME280;48008;51.204;6.766;2022-07-29T04:45:28;101054.31;;;15.99;80.36
62051;BME280;48008;51.204;6.766;2022-07-29T04:47:55;101056.09;;;16.07;84.06
62051;BME280;48008;51.204;6.766;2022-07-29T04:50:22;101058.28;;;16.03;81.16
62051;BME280;48008;51.204;6.766;2022-07-29T04:52:49;101049.50;;;15.95;80.16
62051;BME280;48008;51.204;6.766;2022-07-29T04:55:16;101030.78;;;15.95;80.16
62051;BME280;48008;51.204;6.766;2022-07-29T04:57:43;101033.56;;;16.01;82.11
62051;BME280;48008;51.204;6.766;2022-07-29T05:00:10;101028.09;;;16.09;85.29
62051;BME280;48008;51.204;6.766;2022-07-29T05:02:37;101025.44;;;15.95;80.47
62051;BME280;48008;51.204;6.766;2022-07-29T05:05:04;101026.81;;;16.05;82.57
62051;BME280;48008;51.204;6.766;2022-07-29T05:07:30;101035.03;;;16.19;85.16
62051;BME280;48008;51.204;6.766;2022-07-29T05:09:57;101043.00;;;16.27;84.28
62051;BME280;48008;51.204;6.766;2022-07-29T05:12:25;101047.31;;;16.28;82.73
62051;BME280;48008;51.204;6.766;2022-07-29T05:14:51;101046.50;;;16.27;82.27
62051;BME280;48008;51.204;6.766;2022-07-29T05:17:18;101046.13;;;16.30;82.19
62051;BME280;48008;51.204;6.766;2022-07-29T05:19:45;101049.91;;;16.36;82.99
62051;BME280;48008;51.204;6.766;2022-07-29T05:22:12;101055.91;;;16.38;82.10
62051;BME280;48008;51.204;6.766;2022-07-29T05:24:38;101062.47;;;16.36;83.74
62051;BME280;48008;51.204;6.766;2022-07-29T05:27:05;101064.31;;;16.35;83.06
62051;BME280;48008;51.204;6.766;2022-07-29T05:29:32;101065.59;;;16.24;82.68
62051;BME280;48008;51.204;6.766;2022-07-29T05:31:58;101057.38;;;16.11;81.77
62051;BME280;48008;51.204;6.766;2022-07-29T05:34:25;101060.06;;;16.26;80.51
62051;BME280;48008;51.204;6.766;2022-07-29T05:36:52;101063.41;;;16.43;82.40
62051;BME280;48008;51.204;6.766;2022-07-29T05:39:19;101066.34;;;16.48;84.15
62051;BME280;48008;51.204;6.766;2022-07-29T05:41:45;101065.41;;;16.41;82.59
62051;BME280;48008;51.204;6.766;2022-07-29T05:44:15;101069.88;;;16.48;80.00
62051;BME280;48008;51.204;6.766;2022-07-29T05:46:43;101063.69;;;16.63;82.73
62051;BME280;48008;51.204;6.766;2022-07-29T05:49:10;101069.09;;;16.69;81.89
62051;BME280;48008;51.204;6.766;2022-07-29T05:51:37;101063.69;;;16.63;81.25
62051;BME280;48008;51.204;6.766;2022-07-29T05:54:03;101062.00;;;16.62;80.90
62051;BME280;48008;51.204;6.766;2022-07-29T05:56:30;101075.94;;;16.72;83.20
62051;BME280;48008;51.204;6.766;2022-07-29T05:58:57;101072.50;;;16.78;83.37
62051;BME280;48008;51.204;6.766;2022-07-29T06:01:24;101074.91;;;16.88;81.08
62051;BME280;48008;51.204;6.766;2022-07-29T06:03:51;101081.94;;;16.89;79.52
62051;BME280;48008;51.204;6.766;2022-07-29T06:06:18;101090.00;;;16.89;77.91
62051;BME280;48008;51.204;6.766;2022-07-29T06:08:45;101100.34;;;16.92;78.01
62051;BME280;48008;51.204;6.766;2022-07-29T06:11:11;101100.94;;;17.09;81.79
62051;BME280;48008;51.204;6.766;2022-07-29T06:13:38;101105.03;;;17.05;79.90
62051;BME280;48008;51.204;6.766;2022-07-29T06:16:05;101106.84;;;17.04;77.38
62051;BME280;48008;51.204;6.766;2022-07-29T06:18:31;101112.59;;;17.16;79.20
62051;BME280;48008;51.204;6.766;2022-07-29T06:20:58;101112.03;;;17.21;79.97
62051;BME280;48008;51.204;6.766;2022-07-29T06:23:25;101114.72;;;17.21;81.21
62051;BME280;48008;51.204;6.766;2022-07-29T06:25:52;101113.22;;;17.18;81.25
62051;BME280;48008;51.204;6.766;2022-07-29T06:28:19;101122.53;;;17.22;81.04
62051;BME280;48008;51.204;6.766;2022-07-29T06:30:45;101132.25;;;17.23;78.03
62051;BME280;48008;51.204;6.766;2022-07-29T06:33:16;101138.44;;;17.24;76.29
62051;BME280;48008;51.204;6.766;2022-07-29T06:35:43;101141.47;;;17.36;72.79
62051;BME280;48008;51.204;6.766;2022-07-29T06:38:11;101146.25;;;17.40;73.98
62051;BME280;48008;51.204;6.766;2022-07-29T06:40:43;101153.84;;;17.37;75.44
62051;BME280;48008;51.204;6.766;2022-07-29T06:43:33;101155.59;;;17.44;75.59
62051;BME280;48008;51.204;6.766;2022-07-29T06:46:02;101155.53;;;17.38;75.98
62051;BME280;48008;51.204;6.766;2022-07-29T06:48:30;101151.34;;;17.35;74.49
62051;BME280;48008;51.204;6.766;2022-07-29T06:50:57;101138.34;;;17.32;76.19
62051;BME280;48008;51.204;6.766;2022-07-29T06:53:24;101136.03;;;17.29;80.14
62051;BME280;48008;51.204;6.766;2022-07-29T06:55:51;101144.06;;;17.29;77.72
62051;BME280;48008;51.204;6.766;2022-07-29T06:58:17;101143.06;;;17.30;76.99
62051;BME280;48008;51.204;6.766;2022-07-29T07:00:55;101137.88;;;17.29;78.83
62051;BME280;48008;51.204;6.766;2022-07-29T07:03:23;101136.38;;;17.41;79.50
62051;BME280;48008;51.204;6.766;2022-07-29T07:05:51;101135.03;;;17.52;79.96
62051;BME280;48008;51.204;6.766;2022-07-29T07:08:19;101140.97;;;17.47;77.24
62051;BME280;48008;51.204;6.766;2022-07-29T07:10:47;101145.19;;;17.56;75.79
62051;BME280;48008;51.204;6.766;2022-07-29T07:13:14;101148.78;;;17.63;74.70
62051;BME280;48008;51.204;6.766;2022-07-29T07:15:44;101145.13;;;17.71;74.78
62051;BME280;48008;51.204;6.766;2022-07-29T07:18:11;101164.09;;;17.70;74.66
62051;BME280;48008;51.204;6.766;2022-07-29T07:20:38;101157.66;;;17.64;76.03
62051;BME280;48008;51.204;6.766;2022-07-29T07:23:05;101147.69;;;17.58;78.04
62051;BME280;48008;51.204;6.766;2022-07-29T07:25:31;101155.38;;;17.61;77.39
62051;BME280;48008;51.204;6.766;2022-07-29T07:27:58;101150.31;;;17.73;78.18
62051;BME280;48008;51.204;6.766;2022-07-29T07:30:25;101147.63;;;17.73;77.12
62051;BME280;48008;51.204;6.766;2022-07-29T07:32:52;101142.19;;;17.66;79.69
62051;BME280;48008;51.204;6.766;2022-07-29T07:35:19;101145.84;;;17.80;78.29
62051;BME280;48008;51.204;6.766;2022-07-29T07:37:46;101145.22;;;17.78;80.45
62051;BME280;48008;51.204;6.766;2022-07-29T07:40:13;101138.19;;;17.77;77.75
62051;BME280;48008;51.204;6.766;2022-07-29T07:42:41;101135.09;;;17.58;77.91
62051;BME280;48008;51.204;6.766;2022-07-29T07:45:08;101128.56;;;17.46;78.39
62051;BME280;48008;51.204;6.766;2022-07-29T07:47:39;101124.53;;;17.35;80.74
62051;BME280;48008;51.204;6.766;2022-07-29T07:50:08;101123.63;;;17.43;82.00
62051;BME280;48008;51.204;6.766;2022-07-29T07:52:54;101127.84;;;17.52;81.69
62051;BME280;48008;51.204;6.766;2022-07-29T07:55:24;101125.97;;;17.53;80.54
62051;BME280;48008;51.204;6.766;2022-07-29T07:57:52;101113.38;;;17.53;79.93
62051;BME280;48008;51.204;6.766;2022-07-29T08:00:19;101123.75;;;17.56;78.25
62051;BME280;48008;51.204;6.766;2022-07-29T08:02:46;101128.03;;;17.72;79.34
62051;BME280;48008;51.204;6.766;2022-07-29T08:05:13;101122.84;;;17.71;78.52
62051;BME280;48008;51.204;6.766;2022-07-29T08:07:45;101126.78;;;17.53;77.26
62051;BME280;48008;51.204;6.766;2022-07-29T08:10:14;101128.97;;;17.43;77.10
62051;BME280;48008;51.204;6.766;2022-07-29T08:12:41;101126.47;;;17.41;78.88
62051;BME280;48008;51.204;6.766;2022-07-29T08:15:08;101116.69;;;17.55;81.84
62051;BME280;48008;51.204;6.766;2022-07-29T08:17:35;101118.91;;;17.67;83.70
62051;BME280;48008;51.204;6.766;2022-07-29T08:20:02;101116.66;;;17.70;83.24
62051;BME280;48008;51.204;6.766;2022-07-29T08:22:29;101128.41;;;17.69;82.17
62051;BME280;48008;51.204;6.766;2022-07-29T08:24:57;101133.66;;;17.77;82.36
62051;BME280;48008;51.204;6.766;2022-07-29T08:27:23;101137.81;;;17.80;81.17
62051;BME280;48008;51.204;6.766;2022-07-29T08:30:08;101143.47;;;17.85;79.48
62051;BME280;48008;51.204;6.766;2022-07-29T08:32:36;101143.72;;;17.90;78.60
62051;BME280;48008;51.204;6.766;2022-07-29T08:35:18;101145.16;;;17.93;79.93
62051;BME280;48008;51.204;6.766;2022-07-29T08:37:45;101140.00;;;17.91;79.45
62051;BME280;48008;51.204;6.766;2022-07-29T08:40:12;101133.22;;;17.95;76.35
62051;BME280;48008;51.204;6.766;2022-07-29T08:42:38;101125.81;;;17.97;78.34
62051;BME280;48008;51.204;6.766;2022-07-29T08:45:06;101118.66;;;18.05;78.06
62051;BME280;48008;51.204;6.766;2022-07-29T08:47:33;101118.94;;;18.16;78.48
62051;BME280;48008;51.204;6.766;2022-07-29T08:49:59;101112.34;;;18.19;76.40
62051;BME280;48008;51.204;6.766;2022-07-29T08:52:27;101120.75;;;18.09;75.40
62051;BME280;48008;51.204;6.766;2022-07-29T08:54:55;101118.59;;;17.98;76.50
62051;BME280;48008;51.204;6.766;2022-07-29T08:57:24;101127.03;;;17.95;74.63
62051;BME280;48008;51.204;6.766;2022-07-29T08:59:52;101126.13;;;17.88;74.34
62051;BME280;48008;51.204;6.766;2022-07-29T09:02:22;101127.16;;;17.87;73.97
62051;BME280;48008;51.204;6.766;2022-07-29T09:04:49;101128.34;;;18.06;73.76
62051;BME280;48008;51.204;6.766;2022-07-29T09:07:18;101125.00;;;18.25;80.15
62051;BME280;48008;51.204;6.766;2022-07-29T09:09:45;101123.56;;;18.29;75.28
62051;BME280;48008;51.204;6.766;2022-07-29T09:12:12;101132.56;;;18.43;75.72
62051;BME280;48008;51.204;6.766;2022-07-29T09:14:39;101136.34;;;18.55;74.33
62051;BME280;48008;51.204;6.766;2022-07-29T09:17:06;101134.66;;;18.48;72.93
62051;BME280;48008;51.204;6.766;2022-07-29T09:19:34;101136.19;;;18.64;75.09
62051;BME280;48008;51.204;6.766;2022-07-29T09:22:03;101145.06;;;18.57;74.91
62051;BME280;48008;51.204;6.766;2022-07-29T09:27:20;101135.94;;;18.58;73.80
62051;BME280;48008;51.204;6.766;2022-07-29T09:29:56;101136.38;;;18.62;74.93
62051;BME280;48008;51.204;6.766;2022-07-29T09:32:24;101135.19;;;18.71;74.06
62051;BME280;48008;51.204;6.766;2022-07-29T09:34:50;101144.22;;;18.85;73.66
62051;BME280;48008;51.204;6.766;2022-07-29T09:37:34;101143.78;;;18.82;72.66
62051;BME280;48008;51.204;6.766;2022-07-29T09:40:00;101148.34;;;18.88;73.88
62051;BME280;48008;51.204;6.766;2022-07-29T09:42:37;101148.53;;;18.86;72.64
62051;BME280;48008;51.204;6.766;2022-07-29T09:45:04;101142.94;;;18.81;72.87
62051;BME280;48008;51.204;6.766;2022-07-29T09:47:47;101144.50;;;18.75;73.24
62051;BME280;48008;51.204;6.766;2022-07-29T09:50:15;101140.56;;;18.71;73.69
62051;BME280;48008;51.204;6.766;2022-07-29T09:52:47;101149.88;;;18.75;70.03
62051;BME280;48008;51.204;6.766;2022-07-29T09:55:15;101146.00;;;18.78;69.15
62051;BME280;48008;51.204;6.766;2022-07-29T09:57:42;101151.03;;;18.88;69.32
62051;BME280;48008;51.204;6.766;2022-07-29T10:00:13;101155.41;;;18.95;69.49
62051;BME280;48008;51.204;6.766;2022-07-29T10:02:43;101161.63;;;19.03;70.52
62051;BME280;48008;51.204;6.766;2022-07-29T10:05:22;101156.16;;;19.24;70.86
62051;BME280;48008;51.204;6.766;2022-07-29T10:07:52;101161.09;;;19.21;68.09
62051;BME280;48008;51.204;6.766;2022-07-29T10:10:25;101163.81;;;19.27;67.71
62051;BME280;48008;51.204;6.766;2022-07-29T10:12:55;101164.41;;;19.23;68.68
62051;BME280;48008;51.204;6.766;2022-07-29T10:15:23;101162.03;;;19.41;66.30
62051;BME280;48008;51.204;6.766;2022-07-29T10:17:52;101166.34;;;19.42;67.78
62051;BME280;48008;51.204;6.766;2022-07-29T10:20:21;101163.88;;;19.41;65.77
62051;BME280;48008;51.204;6.766;2022-07-29T10:22:49;101162.44;;;19.45;65.50
62051;BME280;48008;51.204;6.766;2022-07-29T10:25:19;101156.66;;;19.54;65.13
62051;BME280;48008;51.204;6.766;2022-07-29T10:27:47;101160.69;;;19.79;64.16
62051;BME280;48008;51.204;6.766;2022-07-29T10:30:15;101169.94;;;19.69;65.01
62051;BME280;48008;51.204;6.766;2022-07-29T10:36:44;101165.25;;;19.78;65.01
62051;BME280;48008;51.204;6.766;2022-07-29T10:39:22;101165.88;;;19.87;62.44
62051;BME280;48008;51.204;6.766;2022-07-29T10:42:16;101168.13;;;19.77;61.81
62051;BME280;48008;51.204;6.766;2022-07-29T10:44:44;101168.13;;;19.90;62.50
62051;BME280;48008;51.204;6.766;2022-07-29T10:47:20;101169.59;;;19.86;61.50
62051;BME280;48008;51.204;6.766;2022-07-29T10:49:59;101163.59;;;19.90;62.87
62051;BME280;48008;51.204;6.766;2022-07-29T10:55:37;101163.59;;;19.90;63.14
62051;BME280;48008;51.204;6.766;2022-07-29T11:00:54;101163.59;;;20.17;61.54
62051;BME280;48008;51.204;6.766;2022-07-29T11:06:18;101170.81;;;20.50;58.37
62051;BME280;48008;51.204;6.766;2022-07-29T11:09:20;101165.63;;;20.75;56.72
62051;BME280;48008;51.204;6.766;2022-07-29T11:11:47;101163.13;;;20.87;55.18
62051;BME280;48008;51.204;6.766;2022-07-29T11:14:14;101159.75;;;21.05;54.48
62051;BME280;48008;51.204;6.766;2022-07-29T11:17:01;101160.47;;;21.32;53.01
62051;BME280;48008;51.204;6.766;2022-07-29T11:19:29;101159.50;;;21.58;52.64
62051;BME280;48008;51.204;6.766;2022-07-29T11:21:57;101166.59;;;21.84;52.70
62051;BME280;48008;51.204;6.766;2022-07-29T11:24:27;101164.56;;;21.80;50.50
62051;BME280;48008;51.204;6.766;2022-07-29T11:27:15;101161.09;;;21.73;50.86
62051;BME280;48008;51.204;6.766;2022-07-29T11:29:52;101160.81;;;21.81;50.89
62051;BME280;48008;51.204;6.766;2022-07-29T11:32:20;101167.94;;;22.00;50.73
62051;BME280;48008;51.204;6.766;2022-07-29T11:34:49;101152.84;;;22.18;48.10
62051;BME280;48008;51.204;6.766;2022-07-29T11:37:17;101159.97;;;22.37;46.83
62051;BME280;48008;51.204;6.766;2022-07-29T11:39:47;101155.88;;;22.53;47.79
62051;BME280;48008;51.204;6.766;2022-07-29T11:45:21;101154.97;;;23.33;48.58
62051;BME280;48008;51.204;6.766;2022-07-29T11:47:52;101162.91;;;23.47;46.68
62051;BME280;48008;51.204;6.766;2022-07-29T11:50:36;101164.81;;;23.28;47.30
62051;BME280;48008;51.204;6.766;2022-07-29T11:53:11;101157.00;;;23.38;47.29
62051;BME280;48008;51.204;6.766;2022-07-29T11:55:40;101154.38;;;23.62;48.50
62051;BME280;48008;51.204;6.766;2022-07-29T11:58:07;101157.53;;;23.89;47.91
62051;BME280;48008;51.204;6.766;2022-07-29T12:00:37;101156.72;;;24.00;47.70
62051;BME280;48008;51.204;6.766;2022-07-29T12:03:07;101161.41;;;23.93;48.93
62051;BME280;48008;51.204;6.766;2022-07-29T12:05:43;101165.28;;;23.85;47.97
62051;BME280;48008;51.204;6.766;2022-07-29T12:08:14;101162.50;;;24.04;49.98
62051;BME280;48008;51.204;6.766;2022-07-29T12:10:42;101160.63;;;24.16;47.99
62051;BME280;48008;51.204;6.766;2022-07-29T12:13:10;101162.34;;;23.87;48.56
62051;BME280;48008;51.204;6.766;2022-07-29T12:15:37;101160.47;;;23.87;48.53
62051;BME280;48008;51.204;6.766;2022-07-29T12:18:20;101155.84;;;23.57;48.77
62051;BME280;48008;51.204;6.766;2022-07-29T12:20:47;101159.34;;;23.46;50.75
62051;BME280;48008;51.204;6.766;2022-07-29T12:23:15;101156.69;;;23.28;50.28
62051;BME280;48008;51.204;6.766;2022-07-29T12:25:43;101159.09;;;23.17;48.86
62051;BME280;48008;51.204;6.766;2022-07-29T12:28:13;101160.19;;;23.16;49.35
62051;BME280;48008;51.204;6.766;2022-07-29T12:30:44;101164.78;;;23.46;49.22
62051;BME280;48008;51.204;6.766;2022-07-29T12:33:17;101164.69;;;23.53;49.80
62051;BME280;48008;51.204;6.766;2022-07-29T12:35:47;101161.38;;;23.81;49.97
62051;BME280;48008;51.204;6.766;2022-07-29T12:38:24;101165.97;;;23.81;47.16
62051;BME280;48008;51.204;6.766;2022-07-29T12:40:52;101155.91;;;23.69;48.34
62051;BME280;48008;51.204;6.766;2022-07-29T12:43:23;101163.72;;;23.47;48.11
62051;BME280;48008;51.204;6.766;2022-07-29T12:45:52;101163.53;;;23.91;47.88
62051;BME280;48008;51.204;6.766;2022-07-29T12:48:41;101159.56;;;24.05;47.77
62051;BME280;48008;51.204;6.766;2022-07-29T12:51:08;101157.06;;;24.04;47.24
62051;BME280;48008;51.204;6.766;2022-07-29T12:53:36;101146.56;;;23.95;46.98
62051;BME280;48008;51.204;6.766;2022-07-29T12:56:05;101155.44;;;24.14;47.29
62051;BME280;48008;51.204;6.766;2022-07-29T12:58:40;101154.25;;;24.22;47.59
62051;BME280;48008;51.204;6.766;2022-07-29T13:01:10;101159.34;;;24.30;47.38
62051;BME280;48008;51.204;6.766;2022-07-29T13:03:58;101143.88;;;24.66;46.26
62051;BME280;48008;51.204;6.766;2022-07-29T13:06:44;101145.84;;;24.95;46.45
62051;BME280;48008;51.204;6.766;2022-07-29T13:09:14;101152.31;;;25.05;45.12
62051;BME280;48008;51.204;6.766;2022-07-29T13:11:44;101147.13;;;25.04;45.20
62051;BME280;48008;51.204;6.766;2022-07-29T13:14:30;101138.16;;;25.03;44.59
62051;BME280;48008;51.204;6.766;2022-07-29T13:17:02;101144.50;;;25.09;44.29
62051;BME280;48008;51.204;6.766;2022-07-29T13:19:46;101144.34;;;25.27;43.77
62051;BME280;48008;51.204;6.766;2022-07-29T13:22:15;101147.28;;;25.38;45.21
62051;BME280;48008;51.204;6.766;2022-07-29T13:24:59;101149.19;;;25.54;43.59
62051;BME280;48008;51.204;6.766;2022-07-29T13:27:31;101148.44;;;25.42;43.07
62051;BME280;48008;51.204;6.766;2022-07-29T13:30:00;101152.25;;;25.29;43.33